Batajnica, Serbia
Current Conditions -  °F | °C
As of 1:30 AM on Saturday 25 Oct 2014 (Local Time) from LYBT Reporting Station
Scattered Clouds Scattered Clouds  
Wind Chill: 50°   Ceiling: Unl
Heat Index: 50°   Visibility: 6mi
Dew Point: 45°   Wind: 5mph
Humidity: 82%   Direction: 100°E
Pressure: 30.15"   Gusts: NA
Location:  44.9°N, 20.28°E
Report Text: LYBT 242330Z 10004KT 060V130 9999 SCT027 10/07 Q1021 NOSIG
Loading
Personal Weather Stations






























Interactive Weather Map
Tropical Storm Tracking
New forecast layout! Learn more

10-Day Weather Forecast

Advertisements
Track Severe Weather on mobile